createdAt,value
2019-03-31T00:00:29.885Z,48.40
2019-03-31T00:01:07.974Z,48.42
2019-03-31T00:01:34.052Z,48.90
2019-03-31T00:02:05.265Z,48.40
2019-03-31T00:02:36.474Z,48.70
2019-03-31T00:03:07.826Z,48.65
2019-03-31T00:03:39.038Z,49.03
2019-03-31T00:04:10.250Z,48.00
2019-03-31T00:04:41.446Z,48.68
2019-03-31T00:05:12.647Z,49.65
2019-03-31T00:05:43.895Z,48.48
2019-03-31T00:06:15.095Z,47.83
2019-03-31T00:06:46.310Z,48.90
2019-03-31T00:07:17.530Z,48.42
2019-03-31T00:07:48.731Z,47.10
2019-03-31T00:08:19.958Z,48.73
2019-03-31T00:08:51.190Z,46.92
2019-03-31T00:09:22.430Z,47.43
2019-03-31T00:09:53.682Z,45.67
2019-03-31T00:10:24.884Z,46.73
2019-03-31T00:10:56.089Z,46.65
2019-03-31T00:11:27.307Z,48.52
2019-03-31T00:11:58.510Z,46.98
2019-03-31T00:12:29.796Z,46.50
2019-03-31T00:13:01.013Z,45.33
2019-03-31T00:13:32.215Z,46.28
2019-03-31T00:14:03.426Z,45.20
2019-03-31T00:14:34.651Z,46.45
2019-03-31T00:15:05.859Z,45.55
2019-03-31T00:15:37.071Z,44.55
2019-03-31T00:16:08.279Z,44.55
2019-03-31T00:16:39.569Z,45.43
2019-03-31T00:17:10.785Z,45.23
2019-03-31T00:17:41.996Z,44.45
2019-03-31T00:18:13.234Z,46.50
2019-03-31T00:18:44.433Z,45.15
2019-03-31T00:19:15.742Z,45.75
2019-03-31T00:19:46.949Z,45.48
2019-03-31T00:20:18.199Z,46.45
2019-03-31T00:20:49.498Z,43.08
2019-03-31T00:21:20.731Z,42.83
2019-03-31T00:21:51.950Z,43.55
2019-03-31T00:22:23.179Z,43.17
2019-03-31T00:22:54.392Z,42.17
2019-03-31T00:23:25.581Z,43.73
2019-03-31T00:23:56.786Z,41.50
2019-03-31T00:24:28.017Z,41.70
2019-03-31T00:24:59.229Z,43.33
2019-03-31T00:25:30.441Z,42.53
2019-03-31T00:26:01.690Z,39.63
2019-03-31T00:26:32.901Z,42.00
2019-03-31T00:27:04.097Z,39.48
2019-03-31T00:27:35.326Z,38.23
2019-03-31T00:28:06.531Z,37.55
2019-03-31T00:28:37.742Z,40.10
2019-03-31T00:29:08.956Z,40.88
2019-03-31T00:29:40.193Z,40.08
2019-03-31T00:30:11.459Z,41.60
2019-03-31T00:30:42.675Z,39.13
2019-03-31T00:31:22.015Z,41.02
2019-03-31T00:31:46.832Z,39.75
2019-03-31T00:32:18.047Z,40.95
2019-03-31T00:32:49.313Z,42.20
2019-03-31T00:33:20.515Z,40.98
2019-03-31T00:33:51.769Z,40.55
2019-03-31T00:34:22.958Z,41.18
2019-03-31T00:34:54.162Z,39.70
2019-03-31T00:35:25.392Z,38.98
2019-03-31T00:35:56.580Z,39.98
2019-03-31T00:36:27.804Z,39.98
2019-03-31T00:36:59.054Z,39.00
2019-03-31T00:37:30.273Z,38.70
2019-03-31T00:38:01.501Z,37.10
2019-03-31T00:38:32.714Z,37.75
2019-03-31T00:39:03.911Z,34.38
2019-03-31T00:39:35.133Z,36.80
2019-03-31T00:40:06.337Z,38.00
2019-03-31T00:40:37.546Z,34.65
2019-03-31T00:41:08.752Z,37.25
2019-03-31T00:41:39.971Z,36.00
2019-03-31T00:42:11.183Z,34.27
2019-03-31T00:42:42.392Z,33.83
2019-03-31T00:43:13.606Z,34.35
2019-03-31T00:43:44.866Z,34.30
2019-03-31T00:44:16.077Z,34.43
2019-03-31T00:44:47.283Z,34.10
2019-03-31T00:45:18.518Z,34.27
2019-03-31T00:45:49.723Z,36.95
2019-03-31T00:46:20.933Z,34.85
2019-03-31T00:46:52.148Z,33.50
2019-03-31T00:47:23.363Z,35.73
2019-03-31T00:47:54.648Z,38.50
2019-03-31T00:48:25.842Z,37.25
2019-03-31T00:48:57.050Z,35.80
2019-03-31T00:49:28.258Z,34.20
2019-03-31T00:49:59.473Z,35.50
2019-03-31T00:50:30.792Z,35.13
2019-03-31T00:51:01.976Z,32.90
2019-03-31T00:51:33.184Z,31.62
2019-03-31T00:52:04.398Z,32.75
2019-03-31T00:52:35.613Z,32.73
2019-03-31T00:53:06.873Z,34.83
2019-03-31T00:53:38.118Z,32.03
2019-03-31T00:54:09.368Z,33.73
2019-03-31T00:54:40.577Z,37.00
2019-03-31T00:55:11.814Z,36.68
2019-03-31T00:55:43.100Z,37.42
2019-03-31T00:56:14.318Z,39.42
2019-03-31T00:56:45.528Z,39.60
2019-03-31T00:57:16.730Z,40.73
2019-03-31T00:57:47.921Z,39.18
2019-03-31T00:58:19.144Z,40.48
2019-03-31T00:58:50.398Z,38.65
2019-03-31T00:59:21.600Z,39.13
2019-03-31T00:59:52.849Z,38.60
2019-03-31T01:00:24.078Z,42.65
2019-03-31T01:00:55.288Z,41.33
2019-03-31T01:01:36.237Z,42.85
2019-03-31T01:01:59.450Z,38.88
2019-03-31T01:02:30.647Z,39.03
2019-03-31T01:03:01.863Z,41.40
2019-03-31T01:03:33.066Z,38.53
2019-03-31T01:04:04.288Z,37.10
2019-03-31T01:04:35.510Z,40.00
2019-03-31T01:05:06.756Z,38.00
2019-03-31T01:05:37.976Z,41.53
2019-03-31T01:06:09.178Z,40.17
2019-03-31T01:06:40.374Z,41.13
2019-03-31T01:07:11.579Z,41.63
2019-03-31T01:07:42.790Z,41.35
2019-03-31T01:08:13.990Z,42.50
2019-03-31T01:08:45.211Z,41.45
2019-03-31T01:09:16.421Z,40.60
2019-03-31T01:09:47.639Z,39.70
2019-03-31T01:10:18.903Z,41.85
2019-03-31T01:10:50.112Z,42.25
2019-03-31T01:11:21.331Z,41.40
2019-03-31T01:11:52.586Z,42.30
2019-03-31T01:12:23.795Z,41.48
2019-03-31T01:12:54.988Z,39.83
2019-03-31T01:13:26.187Z,41.13
2019-03-31T01:13:57.395Z,41.90
2019-03-31T01:14:28.635Z,38.65
2019-03-31T01:14:59.852Z,34.85
2019-03-31T01:15:31.073Z,35.35
2019-03-31T01:16:02.276Z,34.92
2019-03-31T01:16:33.488Z,36.68
2019-03-31T01:17:04.734Z,35.40
2019-03-31T01:17:35.933Z,37.50
2019-03-31T01:18:07.143Z,37.67
2019-03-31T01:18:38.375Z,37.60
2019-03-31T01:19:09.595Z,38.40
2019-03-31T01:19:40.802Z,37.35
2019-03-31T01:20:12.020Z,38.83
2019-03-31T01:20:43.238Z,39.10
2019-03-31T01:21:14.522Z,38.25
2019-03-31T01:21:45.707Z,37.65
2019-03-31T01:22:16.913Z,36.23
2019-03-31T01:22:48.126Z,36.05
2019-03-31T01:23:19.321Z,38.10
2019-03-31T01:23:50.528Z,38.42
2019-03-31T01:24:21.746Z,39.85
2019-03-31T01:24:52.987Z,38.90
2019-03-31T01:25:24.184Z,38.28
2019-03-31T01:25:55.397Z,40.00
2019-03-31T01:26:26.608Z,41.35
2019-03-31T01:26:57.835Z,40.75
2019-03-31T01:27:29.061Z,41.88
2019-03-31T01:28:00.275Z,41.15
2019-03-31T01:28:31.471Z,40.75
2019-03-31T01:29:02.696Z,41.30
2019-03-31T01:29:33.954Z,41.18
2019-03-31T01:30:05.166Z,41.70
2019-03-31T01:30:36.366Z,42.55
2019-03-31T01:31:07.590Z,40.85
2019-03-31T01:31:49.717Z,39.90
2019-03-31T01:32:11.731Z,41.83
2019-03-31T01:32:42.938Z,39.83
2019-03-31T01:33:14.156Z,41.95
2019-03-31T01:33:45.362Z,42.48
2019-03-31T01:34:16.578Z,41.83
2019-03-31T01:34:47.811Z,40.92
2019-03-31T01:35:19.022Z,41.90
2019-03-31T01:35:50.268Z,40.85
2019-03-31T01:36:21.472Z,40.78
2019-03-31T01:36:52.675Z,41.30
2019-03-31T01:37:23.881Z,41.23
2019-03-31T01:37:55.082Z,42.43
2019-03-31T01:38:26.292Z,41.45
2019-03-31T01:38:57.546Z,40.08
2019-03-31T01:39:28.777Z,40.70
2019-03-31T01:39:59.984Z,41.35
2019-03-31T01:40:31.192Z,42.90
2019-03-31T01:41:02.407Z,41.33
2019-03-31T01:41:33.640Z,43.70
2019-03-31T01:42:04.850Z,42.17
2019-03-31T01:42:36.063Z,42.35
2019-03-31T01:43:07.337Z,43.00
2019-03-31T01:43:38.614Z,43.52
2019-03-31T01:44:09.858Z,41.83
2019-03-31T01:44:41.067Z,40.95
2019-03-31T01:45:12.274Z,40.20
2019-03-31T01:45:43.503Z,40.33
2019-03-31T01:46:14.725Z,41.55
2019-03-31T01:46:45.963Z,42.33
2019-03-31T01:47:17.237Z,41.77
2019-03-31T01:47:48.450Z,42.70
2019-03-31T01:48:19.656Z,43.35
2019-03-31T01:48:50.892Z,42.98
2019-03-31T01:49:22.124Z,42.58
2019-03-31T01:49:53.346Z,41.08
2019-03-31T01:50:24.545Z,40.55
2019-03-31T01:50:55.824Z,40.58
2019-03-31T01:51:27.094Z,40.03
2019-03-31T01:51:58.383Z,40.43
2019-03-31T01:52:29.631Z,40.70
2019-03-31T01:53:00.838Z,40.30
2019-03-31T01:53:32.079Z,40.98
2019-03-31T01:54:03.290Z,39.67
2019-03-31T01:54:34.511Z,37.98
2019-03-31T01:55:05.728Z,39.88
2019-03-31T01:55:36.922Z,37.40
2019-03-31T01:56:08.146Z,38.20
2019-03-31T01:56:39.366Z,38.63
2019-03-31T01:57:10.644Z,39.70
2019-03-31T01:57:41.841Z,39.03
2019-03-31T01:58:13.079Z,37.58
2019-03-31T01:58:44.291Z,38.75
2019-03-31T01:59:15.518Z,40.80
2019-03-31T01:59:46.796Z,35.35
2019-03-31T02:00:18.042Z,36.10
2019-03-31T02:00:49.243Z,37.98
2019-03-31T02:01:20.478Z,37.93
2019-03-31T02:02:03.497Z,37.42
2019-03-31T02:02:24.679Z,38.02
2019-03-31T02:02:55.900Z,37.30
2019-03-31T02:03:27.115Z,36.50
2019-03-31T02:03:58.322Z,36.55
2019-03-31T02:04:29.537Z,37.08
2019-03-31T02:05:00.738Z,32.90
2019-03-31T02:05:31.959Z,34.18
2019-03-31T02:06:03.176Z,33.30
2019-03-31T02:06:34.445Z,33.73
2019-03-31T02:07:05.759Z,33.00
2019-03-31T02:07:36.985Z,33.15
2019-03-31T02:08:08.261Z,32.70
2019-03-31T02:08:39.463Z,33.35
2019-03-31T02:09:10.678Z,33.92
2019-03-31T02:09:41.935Z,32.98
2019-03-31T02:10:13.156Z,32.88
2019-03-31T02:10:44.358Z,32.90
2019-03-31T02:11:15.634Z,34.63
2019-03-31T02:11:46.807Z,31.65
2019-03-31T02:12:18.073Z,32.20
2019-03-31T02:12:49.254Z,33.98
2019-03-31T02:13:20.531Z,34.27
2019-03-31T02:13:51.730Z,34.38
2019-03-31T02:14:22.945Z,33.73
2019-03-31T02:14:54.203Z,32.63
2019-03-31T02:15:25.427Z,32.45
2019-03-31T02:15:56.615Z,32.78
2019-03-31T02:16:27.829Z,33.02
2019-03-31T02:16:59.039Z,32.38
2019-03-31T02:17:30.276Z,31.48
2019-03-31T02:18:01.500Z,32.42
2019-03-31T02:18:32.753Z,33.10
2019-03-31T02:19:04.002Z,30.27
2019-03-31T02:19:35.209Z,30.80
2019-03-31T02:20:06.427Z,31.37
2019-03-31T02:20:37.633Z,32.03
2019-03-31T02:21:08.837Z,33.85
2019-03-31T02:21:40.057Z,31.70
2019-03-31T02:22:11.261Z,30.50
2019-03-31T02:22:42.486Z,32.65
2019-03-31T02:23:13.754Z,32.60
2019-03-31T02:23:44.974Z,32.58
2019-03-31T02:24:16.171Z,32.35
2019-03-31T02:24:47.432Z,32.25
2019-03-31T02:25:18.694Z,30.40
2019-03-31T02:25:49.903Z,33.40
2019-03-31T02:26:21.106Z,32.42
2019-03-31T02:26:52.309Z,32.33
2019-03-31T02:27:23.517Z,32.13
2019-03-31T02:27:54.727Z,32.78
2019-03-31T02:28:25.938Z,31.65
2019-03-31T02:28:57.165Z,31.20
2019-03-31T02:29:28.384Z,30.65
2019-03-31T02:29:59.588Z,32.42
2019-03-31T02:30:30.864Z,30.23
2019-03-31T02:31:02.076Z,28.52
2019-03-31T02:31:33.285Z,30.85
2019-03-31T02:32:22.134Z,30.48
2019-03-31T02:32:37.463Z,27.40
2019-03-31T02:33:08.648Z,28.60
2019-03-31T02:33:39.868Z,29.05
2019-03-31T02:34:11.090Z,29.02
2019-03-31T02:34:42.322Z,31.25
2019-03-31T02:35:13.595Z,30.35
2019-03-31T02:35:44.923Z,30.00
2019-03-31T02:36:16.135Z,30.65
2019-03-31T02:36:47.477Z,30.48
2019-03-31T02:37:18.698Z,29.37
2019-03-31T02:37:49.928Z,29.48
2019-03-31T02:38:21.134Z,31.15
2019-03-31T02:38:52.354Z,31.12
2019-03-31T02:39:23.599Z,29.25
2019-03-31T02:39:54.805Z,28.32
2019-03-31T02:40:26.032Z,30.00
2019-03-31T02:40:57.273Z,28.75
2019-03-31T02:41:28.489Z,29.40
2019-03-31T02:41:59.722Z,28.80
2019-03-31T02:42:30.937Z,29.48
2019-03-31T02:43:02.164Z,28.80
2019-03-31T02:43:33.392Z,29.40
2019-03-31T02:44:04.589Z,29.10
2019-03-31T02:44:35.810Z,29.07
2019-03-31T02:45:07.121Z,28.85
2019-03-31T02:45:38.323Z,28.65
2019-03-31T02:46:09.565Z,28.55
2019-03-31T02:46:40.778Z,28.70
2019-03-31T02:47:12.025Z,29.20
2019-03-31T02:47:43.248Z,27.65
2019-03-31T02:48:14.461Z,27.60
2019-03-31T02:48:45.674Z,27.75
2019-03-31T02:49:16.937Z,28.30
2019-03-31T02:49:48.164Z,27.05
2019-03-31T02:50:19.385Z,28.42
2019-03-31T02:50:50.601Z,28.10
2019-03-31T02:51:21.891Z,28.02
2019-03-31T02:51:53.103Z,27.55
2019-03-31T02:52:24.398Z,25.72
2019-03-31T02:52:55.602Z,26.50
2019-03-31T02:53:26.810Z,28.05
2019-03-31T02:53:58.060Z,28.25
2019-03-31T02:54:29.288Z,26.60
2019-03-31T02:55:00.658Z,27.17
2019-03-31T02:55:31.875Z,27.70
2019-03-31T02:56:03.108Z,26.33
2019-03-31T02:56:34.310Z,26.45
2019-03-31T02:57:05.584Z,25.55
2019-03-31T02:57:36.909Z,26.33
2019-03-31T02:58:08.102Z,26.68
2019-03-31T02:58:39.334Z,26.70
2019-03-31T02:59:10.514Z,27.65
2019-03-31T02:59:41.723Z,26.85
2019-03-31T03:00:12.952Z,26.05
2019-03-31T03:00:44.165Z,24.57
2019-03-31T03:01:15.374Z,25.72
2019-03-31T03:01:46.600Z,25.82
2019-03-31T03:02:17.900Z,27.13
2019-03-31T03:02:49.156Z,24.18
2019-03-31T03:03:20.365Z,26.12
2019-03-31T03:03:51.640Z,26.30
2019-03-31T03:04:22.900Z,26.10
2019-03-31T03:04:54.138Z,25.97
2019-03-31T03:05:25.403Z,26.35
2019-03-31T03:05:56.619Z,25.25
2019-03-31T03:06:27.844Z,26.62
2019-03-31T03:06:59.043Z,26.75
2019-03-31T03:07:30.270Z,26.85
2019-03-31T03:08:01.442Z,27.30
2019-03-31T03:08:32.675Z,26.45
2019-03-31T03:09:03.929Z,27.85
2019-03-31T03:09:35.148Z,27.02
2019-03-31T03:10:06.375Z,27.17
2019-03-31T03:10:37.588Z,26.42
2019-03-31T03:11:08.803Z,26.87
2019-03-31T03:11:40.003Z,28.35
2019-03-31T03:12:11.215Z,26.87
2019-03-31T03:12:42.459Z,28.15
2019-03-31T03:13:13.673Z,26.60
2019-03-31T03:13:44.871Z,26.07
2019-03-31T03:14:16.130Z,26.75
2019-03-31T03:14:47.360Z,26.20
2019-03-31T03:15:18.571Z,26.62
2019-03-31T03:15:49.782Z,27.10
2019-03-31T03:16:20.989Z,28.02
2019-03-31T03:16:52.179Z,27.40
2019-03-31T03:17:23.398Z,27.17
2019-03-31T03:17:54.628Z,27.05
2019-03-31T03:18:25.860Z,27.87
2019-03-31T03:18:57.079Z,27.02
2019-03-31T03:19:28.340Z,27.80
2019-03-31T03:19:59.551Z,26.85
2019-03-31T03:20:30.767Z,26.45
2019-03-31T03:21:01.978Z,27.30
2019-03-31T03:21:33.194Z,27.55
2019-03-31T03:22:04.396Z,27.70
2019-03-31T03:22:35.619Z,27.65
2019-03-31T03:23:06.826Z,28.20
2019-03-31T03:23:38.038Z,26.40
2019-03-31T03:24:09.297Z,27.10
2019-03-31T03:24:40.480Z,28.38
2019-03-31T03:25:11.726Z,27.73
2019-03-31T03:25:55.729Z,25.95
2019-03-31T03:26:16.061Z,26.73
2019-03-31T03:26:47.270Z,27.05
2019-03-31T03:27:18.537Z,26.40
2019-03-31T03:27:49.758Z,27.22
2019-03-31T03:28:20.998Z,26.95
2019-03-31T03:28:52.231Z,27.45
2019-03-31T03:29:23.511Z,26.87
2019-03-31T03:30:05.465Z,28.35
2019-03-31T03:30:36.844Z,26.65
2019-03-31T03:31:15.018Z,27.40
2019-03-31T03:31:41.106Z,26.85
2019-03-31T03:32:12.306Z,28.17
2019-03-31T03:33:11.942Z,27.35
2019-03-31T03:33:18.175Z,27.65
2019-03-31T03:33:49.411Z,28.30
2019-03-31T03:34:20.655Z,27.75
2019-03-31T03:34:51.929Z,27.90
2019-03-31T03:35:23.154Z,26.90
2019-03-31T03:35:54.346Z,28.45
2019-03-31T03:36:25.554Z,26.85
2019-03-31T03:36:56.765Z,26.75
2019-03-31T03:37:28.049Z,28.45
2019-03-31T03:37:59.249Z,29.10
2019-03-31T03:38:30.487Z,27.85
2019-03-31T03:39:01.696Z,28.95
2019-03-31T03:39:32.915Z,27.90
2019-03-31T03:40:04.162Z,28.77
2019-03-31T03:40:35.375Z,28.83
2019-03-31T03:41:06.601Z,28.35
2019-03-31T03:41:37.830Z,28.77
2019-03-31T03:42:09.125Z,29.07
2019-03-31T03:42:40.357Z,27.73
2019-03-31T03:43:11.620Z,29.70
2019-03-31T03:43:55.013Z,28.70
2019-03-31T03:44:15.755Z,28.57
2019-03-31T03:44:46.972Z,28.50
2019-03-31T03:45:18.162Z,28.73
2019-03-31T03:45:49.391Z,29.15
2019-03-31T03:46:20.653Z,29.00
2019-03-31T03:46:51.863Z,29.15
2019-03-31T03:47:23.074Z,28.15
2019-03-31T03:47:54.295Z,28.38
2019-03-31T03:48:25.501Z,28.90
2019-03-31T03:48:56.847Z,27.98
2019-03-31T03:49:28.103Z,28.40
2019-03-31T03:49:59.280Z,29.57
2019-03-31T03:50:30.496Z,29.40
2019-03-31T03:51:01.714Z,29.40
2019-03-31T03:51:32.977Z,29.37
2019-03-31T03:52:04.183Z,28.75
2019-03-31T03:52:35.387Z,28.75
2019-03-31T03:53:06.601Z,28.52
2019-03-31T03:53:37.825Z,28.57
2019-03-31T03:54:09.023Z,28.85
2019-03-31T03:54:40.299Z,27.73
2019-03-31T03:55:11.485Z,29.50
2019-03-31T03:55:42.685Z,29.75
2019-03-31T03:56:13.884Z,28.60
2019-03-31T03:56:45.484Z,29.23
2019-03-31T03:57:16.677Z,30.72
2019-03-31T03:57:47.933Z,29.87
2019-03-31T03:58:19.137Z,30.75
2019-03-31T03:58:50.383Z,29.12
2019-03-31T03:59:21.551Z,29.95
2019-03-31T03:59:52.731Z,29.67
2019-03-31T04:00:23.907Z,29.48
2019-03-31T04:00:55.405Z,30.15
2019-03-31T04:01:26.610Z,29.70
2019-03-31T04:01:57.789Z,30.77
2019-03-31T04:02:29.001Z,30.25
2019-03-31T04:03:00.172Z,31.52
2019-03-31T04:03:31.396Z,32.17
2019-03-31T04:04:02.533Z,33.40
2019-03-31T04:04:33.694Z,33.70
2019-03-31T04:05:04.922Z,32.63
2019-03-31T04:05:36.142Z,31.45
2019-03-31T04:06:07.346Z,32.60
2019-03-31T04:06:38.480Z,32.03
2019-03-31T04:07:09.651Z,32.25
2019-03-31T04:07:40.814Z,30.02
2019-03-31T04:08:11.975Z,29.82
2019-03-31T04:08:43.134Z,30.20
2019-03-31T04:09:14.378Z,30.77
2019-03-31T04:09:45.534Z,32.25
2019-03-31T04:10:16.731Z,29.77
2019-03-31T04:10:47.929Z,31.07
2019-03-31T04:11:21.571Z,31.27
2019-03-31T04:11:51.990Z,29.72
2019-03-31T04:12:23.177Z,30.17
2019-03-31T04:12:54.397Z,30.40
2019-03-31T04:13:25.588Z,28.50
2019-03-31T04:13:56.739Z,29.98
2019-03-31T04:14:27.944Z,28.40
2019-03-31T04:14:59.113Z,30.32
2019-03-31T04:15:30.417Z,31.87
2019-03-31T04:16:01.580Z,31.95
2019-03-31T04:16:32.772Z,32.28
2019-03-31T04:17:03.947Z,33.23
2019-03-31T04:17:35.111Z,32.05
2019-03-31T04:18:06.279Z,32.75
2019-03-31T04:18:37.446Z,31.33
2019-03-31T04:19:08.647Z,31.02
2019-03-31T04:19:39.825Z,31.93
2019-03-31T04:20:11.019Z,32.17
2019-03-31T04:20:42.182Z,34.60
2019-03-31T04:21:13.371Z,33.00
2019-03-31T04:21:44.540Z,34.25
2019-03-31T04:22:15.767Z,36.10
2019-03-31T04:22:46.926Z,35.58
2019-03-31T04:23:18.145Z,36.38
2019-03-31T04:23:49.363Z,36.73
2019-03-31T04:24:20.564Z,38.78
2019-03-31T04:24:51.730Z,36.98
2019-03-31T04:25:22.905Z,37.58
2019-03-31T04:25:54.157Z,37.88
2019-03-31T04:26:25.357Z,36.95
2019-03-31T04:26:56.527Z,34.15
2019-03-31T04:27:27.689Z,31.50
2019-03-31T04:27:58.878Z,32.50
2019-03-31T04:28:30.058Z,32.05
2019-03-31T04:29:01.223Z,33.02
2019-03-31T04:29:32.440Z,34.35
2019-03-31T04:30:03.622Z,33.33
2019-03-31T04:30:34.811Z,34.40
2019-03-31T04:31:05.987Z,35.30
2019-03-31T04:31:37.199Z,34.73
2019-03-31T04:32:08.390Z,34.27
2019-03-31T04:32:39.561Z,34.13
2019-03-31T04:33:10.732Z,33.25
2019-03-31T04:33:51.300Z,35.92
2019-03-31T04:34:14.772Z,36.42
2019-03-31T04:34:45.962Z,36.65
2019-03-31T04:35:17.133Z,37.65
2019-03-31T04:35:48.307Z,39.60
2019-03-31T04:36:19.520Z,36.77
2019-03-31T04:36:50.710Z,37.98
2019-03-31T04:37:21.969Z,37.98
2019-03-31T04:37:53.128Z,36.88
2019-03-31T04:38:24.286Z,36.48
2019-03-31T04:38:59.896Z,32.05
2019-03-31T04:39:28.382Z,29.82
2019-03-31T04:39:59.629Z,27.85
2019-03-31T04:40:30.834Z,27.52
2019-03-31T04:41:02.033Z,32.50
2019-03-31T04:41:33.205Z,30.27
2019-03-31T04:42:04.377Z,33.60
2019-03-31T04:42:35.548Z,39.08
2019-03-31T04:43:06.715Z,40.25
2019-03-31T04:43:37.893Z,40.05
2019-03-31T04:44:09.086Z,39.27
2019-03-31T04:44:40.308Z,35.03
2019-03-31T04:45:11.495Z,32.98
2019-03-31T04:45:43.012Z,32.73
2019-03-31T04:46:14.208Z,31.30
2019-03-31T04:46:45.383Z,32.80
2019-03-31T04:47:16.626Z,34.80
2019-03-31T04:47:47.787Z,38.17
2019-03-31T04:48:18.955Z,40.78
2019-03-31T04:48:50.108Z,41.85
2019-03-31T04:49:21.280Z,42.55
2019-03-31T04:49:52.465Z,40.80
2019-03-31T04:50:23.675Z,39.88
2019-03-31T04:50:54.841Z,41.08
2019-03-31T04:51:26.011Z,42.88
2019-03-31T04:51:57.218Z,40.80
2019-03-31T04:52:28.378Z,40.43
2019-03-31T04:52:59.543Z,40.78
2019-03-31T04:53:30.751Z,40.63
2019-03-31T04:54:01.950Z,40.38
2019-03-31T04:54:33.129Z,41.33
2019-03-31T04:55:04.317Z,38.65
2019-03-31T04:55:35.473Z,38.28
2019-03-31T04:56:06.644Z,39.40
2019-03-31T04:56:37.883Z,37.35
2019-03-31T04:57:09.045Z,35.08
2019-03-31T04:57:40.262Z,35.40
2019-03-31T04:58:11.423Z,35.40
2019-03-31T04:58:42.591Z,36.90
2019-03-31T04:59:13.770Z,36.65
2019-03-31T04:59:44.929Z,36.85
2019-03-31T05:00:16.105Z,33.50
2019-03-31T05:00:47.281Z,32.10
2019-03-31T05:01:18.449Z,33.53
2019-03-31T05:01:49.615Z,35.52
2019-03-31T05:02:20.785Z,35.08
2019-03-31T05:02:51.997Z,35.83
2019-03-31T05:03:23.224Z,36.03
2019-03-31T05:04:04.680Z,36.38
2019-03-31T05:04:27.276Z,36.98
2019-03-31T05:04:58.446Z,35.65
2019-03-31T05:05:29.608Z,34.50
2019-03-31T05:06:00.792Z,35.73
2019-03-31T05:06:31.948Z,35.65
2019-03-31T05:07:03.147Z,36.70
2019-03-31T05:07:34.333Z,36.77
2019-03-31T05:08:05.503Z,37.17
2019-03-31T05:08:36.717Z,35.63
2019-03-31T05:09:07.956Z,34.92
2019-03-31T05:09:39.130Z,35.95
2019-03-31T05:10:10.299Z,36.05
2019-03-31T05:10:41.503Z,35.98
2019-03-31T05:11:12.675Z,36.33
2019-03-31T05:11:43.849Z,36.33
2019-03-31T05:12:16.913Z,36.00
2019-03-31T05:12:47.923Z,37.67
2019-03-31T05:13:19.106Z,35.05
2019-03-31T05:13:50.281Z,35.50
2019-03-31T05:14:21.450Z,34.98
2019-03-31T05:14:52.636Z,35.03
2019-03-31T05:15:23.845Z,35.43
2019-03-31T05:15:55.015Z,35.08
2019-03-31T05:16:26.185Z,33.85
2019-03-31T05:16:57.351Z,34.53
2019-03-31T05:17:28.528Z,34.15
2019-03-31T05:17:59.700Z,36.42
2019-03-31T05:18:30.858Z,35.55
2019-03-31T05:19:02.034Z,36.77
2019-03-31T05:19:33.199Z,36.10
2019-03-31T05:20:04.351Z,35.05
2019-03-31T05:20:35.587Z,35.15
2019-03-31T05:21:06.815Z,36.60
2019-03-31T05:21:38.025Z,35.23
2019-03-31T05:22:09.205Z,36.88
2019-03-31T05:22:40.382Z,36.38
2019-03-31T05:23:11.530Z,36.55
2019-03-31T05:23:42.767Z,36.65
2019-03-31T05:24:13.924Z,34.15
2019-03-31T05:24:45.116Z,35.52
2019-03-31T05:25:16.299Z,33.15
2019-03-31T05:25:47.513Z,35.25
2019-03-31T05:26:18.670Z,34.23
2019-03-31T05:26:49.845Z,32.78
2019-03-31T05:27:20.996Z,34.53
2019-03-31T05:27:52.175Z,32.65
2019-03-31T05:28:23.360Z,33.40
2019-03-31T05:28:54.577Z,32.03
2019-03-31T05:29:25.762Z,32.45
2019-03-31T05:29:56.945Z,31.65
2019-03-31T05:30:28.112Z,32.98
2019-03-31T05:30:59.378Z,33.25
2019-03-31T05:31:30.537Z,32.08
2019-03-31T05:32:01.716Z,32.10
2019-03-31T05:32:32.901Z,30.37
2019-03-31T05:33:04.067Z,32.03
2019-03-31T05:33:35.354Z,32.63
2019-03-31T05:34:18.543Z,31.10
2019-03-31T05:34:39.442Z,31.05
2019-03-31T05:35:10.621Z,32.08
2019-03-31T05:35:41.807Z,31.45
2019-03-31T05:36:13.023Z,31.23
2019-03-31T05:36:44.193Z,33.02
2019-03-31T05:37:15.420Z,31.05
2019-03-31T05:37:51.211Z,30.77
2019-03-31T05:38:19.463Z,30.72
2019-03-31T05:38:50.622Z,30.57
2019-03-31T05:39:21.801Z,29.65
2019-03-31T05:39:52.972Z,30.50
2019-03-31T05:40:24.137Z,30.30
2019-03-31T05:40:55.315Z,28.25
2019-03-31T05:41:26.586Z,29.67
2019-03-31T05:41:57.784Z,27.82
2019-03-31T05:42:28.951Z,28.95
2019-03-31T05:43:00.112Z,27.70
2019-03-31T05:43:31.296Z,28.32
2019-03-31T05:44:05.854Z,29.92
2019-03-31T05:44:35.365Z,27.48
2019-03-31T05:45:06.524Z,28.80
2019-03-31T05:45:37.681Z,26.87
2019-03-31T05:46:08.863Z,27.60
2019-03-31T05:46:40.031Z,29.10
2019-03-31T05:47:11.244Z,30.20
2019-03-31T05:47:42.410Z,29.25
2019-03-31T05:48:13.595Z,30.17
2019-03-31T05:48:44.812Z,30.95
2019-03-31T05:49:15.976Z,29.60
2019-03-31T05:49:47.137Z,29.87
2019-03-31T05:50:18.336Z,28.92
2019-03-31T05:50:49.485Z,28.87
2019-03-31T05:51:20.647Z,27.17
2019-03-31T05:51:51.827Z,29.27
2019-03-31T05:52:23.041Z,27.17
2019-03-31T05:52:54.202Z,30.08
2019-03-31T05:53:25.387Z,29.23
2019-03-31T05:53:56.546Z,27.90
2019-03-31T05:54:27.738Z,28.92
2019-03-31T05:54:58.891Z,28.67
2019-03-31T05:55:30.103Z,30.05
2019-03-31T05:56:01.272Z,28.20
2019-03-31T05:56:32.434Z,28.20
2019-03-31T05:57:03.610Z,28.65
2019-03-31T05:57:34.775Z,26.70
2019-03-31T05:58:05.932Z,27.32
2019-03-31T05:58:37.118Z,27.85
2019-03-31T05:59:08.329Z,30.25
2019-03-31T05:59:39.522Z,27.93
2019-03-31T06:00:10.733Z,29.30
2019-03-31T06:00:41.896Z,27.37
2019-03-31T06:01:13.151Z,28.17
2019-03-31T06:01:44.319Z,28.67
2019-03-31T06:02:15.494Z,29.37
2019-03-31T06:02:46.656Z,29.85
2019-03-31T06:03:17.842Z,28.30
2019-03-31T06:03:49.003Z,28.42
2019-03-31T06:04:32.655Z,29.35
2019-03-31T06:04:53.115Z,29.57
2019-03-31T06:05:24.277Z,26.12
2019-03-31T06:05:55.443Z,28.75
2019-03-31T06:06:26.601Z,28.87
2019-03-31T06:06:57.764Z,29.32
2019-03-31T06:07:28.928Z,29.60
2019-03-31T06:08:00.089Z,29.57
2019-03-31T06:08:31.242Z,29.37
2019-03-31T06:09:02.405Z,29.10
2019-03-31T06:09:33.608Z,29.32
2019-03-31T06:10:04.825Z,29.45
2019-03-31T06:10:36.015Z,29.20
2019-03-31T06:11:07.276Z,28.57
2019-03-31T06:11:38.455Z,28.50
2019-03-31T06:12:09.617Z,28.35
2019-03-31T06:12:40.778Z,27.98
2019-03-31T06:13:11.972Z,28.52
2019-03-31T06:13:43.134Z,28.30
2019-03-31T06:14:14.642Z,28.75
2019-03-31T06:14:45.816Z,29.48
2019-03-31T06:15:17.065Z,27.58
2019-03-31T06:15:48.225Z,26.85
2019-03-31T06:16:19.389Z,28.40
2019-03-31T06:16:50.553Z,26.20
2019-03-31T06:17:21.720Z,27.42
2019-03-31T06:17:52.884Z,28.30
2019-03-31T06:18:24.065Z,28.80
2019-03-31T06:18:55.327Z,28.75
2019-03-31T06:19:26.581Z,28.90
2019-03-31T06:19:57.739Z,28.42
2019-03-31T06:20:28.964Z,28.07
2019-03-31T06:21:00.120Z,27.60
2019-03-31T06:21:31.299Z,27.93
2019-03-31T06:22:02.558Z,28.35
2019-03-31T06:22:33.731Z,28.83
2019-03-31T06:23:04.937Z,26.73
2019-03-31T06:23:36.106Z,27.15
2019-03-31T06:24:07.292Z,25.35
2019-03-31T06:24:38.447Z,27.90
2019-03-31T06:25:09.600Z,26.17
2019-03-31T06:25:40.776Z,26.17
2019-03-31T06:26:11.957Z,27.10
2019-03-31T06:26:43.119Z,27.22
2019-03-31T06:27:15.775Z,28.98
2019-03-31T06:27:47.155Z,27.45
2019-03-31T06:28:18.367Z,28.10
2019-03-31T06:28:49.542Z,26.40
2019-03-31T06:29:20.726Z,27.80
2019-03-31T06:29:51.938Z,25.45
2019-03-31T06:30:23.125Z,24.32
2019-03-31T06:30:54.291Z,24.15
2019-03-31T06:31:25.460Z,25.32
2019-03-31T06:31:56.626Z,25.92
2019-03-31T06:32:27.797Z,24.27
2019-03-31T06:32:59.000Z,22.75
2019-03-31T06:33:30.196Z,23.90
2019-03-31T06:34:01.401Z,23.35
2019-03-31T06:34:46.417Z,25.10
2019-03-31T06:35:05.460Z,23.62
2019-03-31T06:35:36.608Z,23.47
2019-03-31T06:36:07.807Z,25.17
2019-03-31T06:36:38.970Z,25.25
2019-03-31T06:37:10.143Z,24.05
2019-03-31T06:37:41.314Z,22.30
2019-03-31T06:38:12.972Z,24.80
2019-03-31T06:38:44.131Z,22.27
2019-03-31T06:39:15.310Z,23.60
2019-03-31T06:39:46.501Z,23.07
2019-03-31T06:40:17.679Z,23.02
2019-03-31T06:40:48.854Z,23.55
2019-03-31T06:41:20.033Z,24.37
2019-03-31T06:41:51.211Z,22.67
2019-03-31T06:42:22.389Z,23.20
2019-03-31T06:42:53.566Z,22.45